sensor_id;sensor_type;location;lat;lon;timestamp;P1;durP1;ratioP1;P2;durP2;ratioP2
57663;SDS011;43493;53.098;6.064;2022-08-24T00:00:13;17.90;;;14.87;;
57663;SDS011;43493;53.098;6.064;2022-08-24T00:02:41;19.30;;;14.17;;
57663;SDS011;43493;53.098;6.064;2022-08-24T00:05:07;15.67;;;13.87;;
57663;SDS011;43493;53.098;6.064;2022-08-24T00:07:34;16.87;;;13.90;;
57663;SDS011;43493;53.098;6.064;2022-08-24T00:10:00;17.43;;;14.47;;
57663;SDS011;43493;53.098;6.064;2022-08-24T00:12:26;17.53;;;13.90;;
57663;SDS011;43493;53.098;6.064;2022-08-24T00:14:52;17.43;;;14.63;;
57663;SDS011;43493;53.098;6.064;2022-08-24T00:17:19;17.70;;;14.47;;
57663;SDS011;43493;53.098;6.064;2022-08-24T00:19:45;17.67;;;14.13;;
57663;SDS011;43493;53.098;6.064;2022-08-24T00:22:11;17.73;;;14.70;;
57663;SDS011;43493;53.098;6.064;2022-08-24T00:24:38;18.27;;;15.63;;
57663;SDS011;43493;53.098;6.064;2022-08-24T00:27:05;16.70;;;14.93;;
57663;SDS011;43493;53.098;6.064;2022-08-24T00:29:31;17.50;;;15.60;;
57663;SDS011;43493;53.098;6.064;2022-08-24T00:31:57;18.27;;;15.83;;
57663;SDS011;43493;53.098;6.064;2022-08-24T00:34:23;14.83;;;13.33;;
57663;SDS011;43493;53.098;6.064;2022-08-24T00:36:50;18.43;;;15.30;;
57663;SDS011;43493;53.098;6.064;2022-08-24T00:39:17;17.83;;;14.53;;
57663;SDS011;43493;53.098;6.064;2022-08-24T00:41:45;17.67;;;14.37;;
57663;SDS011;43493;53.098;6.064;2022-08-24T00:44:12;18.03;;;14.80;;
57663;SDS011;43493;53.098;6.064;2022-08-24T00:46:49;15.93;;;13.50;;
57663;SDS011;43493;53.098;6.064;2022-08-24T00:49:34;18.30;;;14.27;;
57663;SDS011;43493;53.098;6.064;2022-08-24T00:52:34;18.15;;;13.57;;
57663;SDS011;43493;53.098;6.064;2022-08-24T00:55:18;16.37;;;12.97;;
57663;SDS011;43493;53.098;6.064;2022-08-24T00:57:48;16.10;;;12.70;;
57663;SDS011;43493;53.098;6.064;2022-08-24T01:00:24;15.77;;;13.00;;
57663;SDS011;43493;53.098;6.064;2022-08-24T01:02:53;13.87;;;12.37;;
57663;SDS011;43493;53.098;6.064;2022-08-24T01:05:28;15.90;;;13.57;;
57663;SDS011;43493;53.098;6.064;2022-08-24T01:07:58;15.73;;;12.50;;
57663;SDS011;43493;53.098;6.064;2022-08-24T01:10:27;16.33;;;14.10;;
57663;SDS011;43493;53.098;6.064;2022-08-24T01:12:57;17.10;;;14.90;;
57663;SDS011;43493;53.098;6.064;2022-08-24T01:15:25;15.10;;;13.20;;
57663;SDS011;43493;53.098;6.064;2022-08-24T01:17:52;13.97;;;12.40;;
57663;SDS011;43493;53.098;6.064;2022-08-24T01:20:37;17.23;;;14.25;;
57663;SDS011;43493;53.098;6.064;2022-08-24T01:23:08;16.27;;;13.33;;
57663;SDS011;43493;53.098;6.064;2022-08-24T01:25:41;18.47;;;14.27;;
57663;SDS011;43493;53.098;6.064;2022-08-24T01:28:15;16.37;;;14.67;;
57663;SDS011;43493;53.098;6.064;2022-08-24T01:30:44;15.63;;;14.13;;
57663;SDS011;43493;53.098;6.064;2022-08-24T01:33:20;16.53;;;14.70;;
57663;SDS011;43493;53.098;6.064;2022-08-24T01:35:47;17.63;;;15.90;;
57663;SDS011;43493;53.098;6.064;2022-08-24T01:38:14;17.57;;;15.80;;
57663;SDS011;43493;53.098;6.064;2022-08-24T01:40:42;19.23;;;17.17;;
57663;SDS011;43493;53.098;6.064;2022-08-24T01:43:12;21.37;;;17.20;;
57663;SDS011;43493;53.098;6.064;2022-08-24T01:45:39;20.60;;;16.87;;
57663;SDS011;43493;53.098;6.064;2022-08-24T01:48:05;20.30;;;18.30;;
57663;SDS011;43493;53.098;6.064;2022-08-24T01:50:31;19.23;;;17.43;;
57663;SDS011;43493;53.098;6.064;2022-08-24T01:52:58;19.67;;;17.70;;
57663;SDS011;43493;53.098;6.064;2022-08-24T01:55:27;18.67;;;16.83;;
57663;SDS011;43493;53.098;6.064;2022-08-24T01:57:53;19.13;;;17.27;;
57663;SDS011;43493;53.098;6.064;2022-08-24T02:00:19;20.40;;;18.20;;
57663;SDS011;43493;53.098;6.064;2022-08-24T02:02:45;18.43;;;16.57;;
57663;SDS011;43493;53.098;6.064;2022-08-24T02:05:11;19.43;;;17.17;;
57663;SDS011;43493;53.098;6.064;2022-08-24T02:07:39;18.97;;;17.10;;
57663;SDS011;43493;53.098;6.064;2022-08-24T02:10:06;20.43;;;18.37;;
57663;SDS011;43493;53.098;6.064;2022-08-24T02:12:35;19.60;;;17.70;;
57663;SDS011;43493;53.098;6.064;2022-08-24T02:15:02;21.60;;;18.87;;
57663;SDS011;43493;53.098;6.064;2022-08-24T02:17:30;20.07;;;18.07;;
57663;SDS011;43493;53.098;6.064;2022-08-24T02:19:55;21.30;;;17.47;;
57663;SDS011;43493;53.098;6.064;2022-08-24T02:22:21;19.83;;;17.83;;
57663;SDS011;43493;53.098;6.064;2022-08-24T02:24:47;20.13;;;18.03;;
57663;SDS011;43493;53.098;6.064;2022-08-24T02:27:13;20.00;;;17.90;;
57663;SDS011;43493;53.098;6.064;2022-08-24T02:29:41;22.00;;;19.03;;
57663;SDS011;43493;53.098;6.064;2022-08-24T02:32:07;23.27;;;19.80;;
57663;SDS011;43493;53.098;6.064;2022-08-24T02:34:34;21.93;;;19.33;;
57663;SDS011;43493;53.098;6.064;2022-08-24T02:37:00;22.07;;;19.87;;
57663;SDS011;43493;53.098;6.064;2022-08-24T02:39:26;19.53;;;17.67;;
57663;SDS011;43493;53.098;6.064;2022-08-24T02:41:53;21.13;;;18.93;;
57663;SDS011;43493;53.098;6.064;2022-08-24T02:44:19;22.90;;;19.10;;
57663;SDS011;43493;53.098;6.064;2022-08-24T02:46:45;19.00;;;17.20;;
57663;SDS011;43493;53.098;6.064;2022-08-24T02:49:11;20.13;;;18.13;;
57663;SDS011;43493;53.098;6.064;2022-08-24T02:51:37;22.00;;;19.80;;
57663;SDS011;43493;53.098;6.064;2022-08-24T02:54:06;20.53;;;18.53;;
57663;SDS011;43493;53.098;6.064;2022-08-24T02:56:32;21.60;;;19.40;;
57663;SDS011;43493;53.098;6.064;2022-08-24T02:58:59;21.27;;;19.17;;
57663;SDS011;43493;53.098;6.064;2022-08-24T03:01:25;22.03;;;19.73;;
57663;SDS011;43493;53.098;6.064;2022-08-24T03:03:52;20.53;;;18.43;;
57663;SDS011;43493;53.098;6.064;2022-08-24T03:06:19;20.80;;;18.57;;
57663;SDS011;43493;53.098;6.064;2022-08-24T03:08:44;20.83;;;18.73;;
57663;SDS011;43493;53.098;6.064;2022-08-24T03:11:11;19.30;;;17.37;;
57663;SDS011;43493;53.098;6.064;2022-08-24T03:13:37;20.33;;;18.27;;
57663;SDS011;43493;53.098;6.064;2022-08-24T03:16:03;19.00;;;17.10;;
57663;SDS011;43493;53.098;6.064;2022-08-24T03:18:30;21.37;;;17.90;;
57663;SDS011;43493;53.098;6.064;2022-08-24T03:20:57;19.33;;;17.43;;
57663;SDS011;43493;53.098;6.064;2022-08-24T03:23:25;21.67;;;19.33;;
57663;SDS011;43493;53.098;6.064;2022-08-24T03:25:52;22.93;;;18.90;;
57663;SDS011;43493;53.098;6.064;2022-08-24T03:28:19;20.67;;;18.60;;
57663;SDS011;43493;53.098;6.064;2022-08-24T03:30:46;20.20;;;17.97;;
57663;SDS011;43493;53.098;6.064;2022-08-24T03:33:12;20.20;;;18.17;;
57663;SDS011;43493;53.098;6.064;2022-08-24T03:35:38;19.77;;;17.80;;
57663;SDS011;43493;53.098;6.064;2022-08-24T03:38:04;20.63;;;18.43;;
57663;SDS011;43493;53.098;6.064;2022-08-24T03:40:31;19.10;;;17.13;;
57663;SDS011;43493;53.098;6.064;2022-08-24T03:42:57;19.77;;;17.93;;
57663;SDS011;43493;53.098;6.064;2022-08-24T03:45:24;19.83;;;17.83;;
57663;SDS011;43493;53.098;6.064;2022-08-24T03:47:50;22.17;;;19.83;;
57663;SDS011;43493;53.098;6.064;2022-08-24T03:50:17;21.07;;;18.87;;
57663;SDS011;43493;53.098;6.064;2022-08-24T03:52:44;21.40;;;19.17;;
57663;SDS011;43493;53.098;6.064;2022-08-24T03:55:10;19.60;;;17.80;;
57663;SDS011;43493;53.098;6.064;2022-08-24T03:57:37;18.67;;;16.97;;
57663;SDS011;43493;53.098;6.064;2022-08-24T04:00:04;21.03;;;17.77;;
57663;SDS011;43493;53.098;6.064;2022-08-24T04:02:33;19.97;;;18.07;;
57663;SDS011;43493;53.098;6.064;2022-08-24T04:04:59;20.67;;;18.57;;
57663;SDS011;43493;53.098;6.064;2022-08-24T04:07:25;21.63;;;19.37;;
57663;SDS011;43493;53.098;6.064;2022-08-24T04:09:51;19.43;;;17.33;;
57663;SDS011;43493;53.098;6.064;2022-08-24T04:12:17;22.10;;;19.83;;
57663;SDS011;43493;53.098;6.064;2022-08-24T04:14:43;22.27;;;19.97;;
57663;SDS011;43493;53.098;6.064;2022-08-24T04:17:09;19.97;;;17.87;;
57663;SDS011;43493;53.098;6.064;2022-08-24T04:19:36;20.50;;;18.47;;
57663;SDS011;43493;53.098;6.064;2022-08-24T04:22:02;21.57;;;19.53;;
57663;SDS011;43493;53.098;6.064;2022-08-24T04:24:28;22.93;;;20.73;;
57663;SDS011;43493;53.098;6.064;2022-08-24T04:26:55;21.07;;;19.17;;
57663;SDS011;43493;53.098;6.064;2022-08-24T04:29:21;22.97;;;20.70;;
57663;SDS011;43493;53.098;6.064;2022-08-24T04:31:47;24.20;;;20.53;;
57663;SDS011;43493;53.098;6.064;2022-08-24T04:34:13;22.93;;;20.83;;
57663;SDS011;43493;53.098;6.064;2022-08-24T04:36:40;23.93;;;21.73;;
57663;SDS011;43493;53.098;6.064;2022-08-24T04:39:07;23.90;;;21.57;;
57663;SDS011;43493;53.098;6.064;2022-08-24T04:41:33;24.27;;;21.97;;
57663;SDS011;43493;53.098;6.064;2022-08-24T04:44:00;24.87;;;22.37;;
57663;SDS011;43493;53.098;6.064;2022-08-24T04:46:27;26.30;;;23.63;;
57663;SDS011;43493;53.098;6.064;2022-08-24T04:48:53;25.97;;;23.57;;
57663;SDS011;43493;53.098;6.064;2022-08-24T04:51:19;25.00;;;22.67;;
57663;SDS011;43493;53.098;6.064;2022-08-24T04:53:46;24.07;;;21.67;;
57663;SDS011;43493;53.098;6.064;2022-08-24T04:56:18;26.20;;;23.43;;
57663;SDS011;43493;53.098;6.064;2022-08-24T04:58:47;26.77;;;24.17;;
57663;SDS011;43493;53.098;6.064;2022-08-24T05:01:16;25.37;;;23.03;;
57663;SDS011;43493;53.098;6.064;2022-08-24T05:03:44;27.43;;;25.00;;
57663;SDS011;43493;53.098;6.064;2022-08-24T05:06:12;29.30;;;26.40;;
57663;SDS011;43493;53.098;6.064;2022-08-24T05:08:39;30.00;;;27.00;;
57663;SDS011;43493;53.098;6.064;2022-08-24T05:11:06;30.10;;;27.30;;
57663;SDS011;43493;53.098;6.064;2022-08-24T05:13:32;31.37;;;28.03;;
57663;SDS011;43493;53.098;6.064;2022-08-24T05:15:58;30.43;;;27.43;;
57663;SDS011;43493;53.098;6.064;2022-08-24T05:18:24;30.67;;;27.77;;
57663;SDS011;43493;53.098;6.064;2022-08-24T05:20:54;32.20;;;29.03;;
57663;SDS011;43493;53.098;6.064;2022-08-24T05:23:20;33.07;;;29.67;;
57663;SDS011;43493;53.098;6.064;2022-08-24T05:25:47;30.77;;;27.67;;
57663;SDS011;43493;53.098;6.064;2022-08-24T05:28:13;28.73;;;26.03;;
57663;SDS011;43493;53.098;6.064;2022-08-24T05:30:38;27.97;;;25.10;;
57663;SDS011;43493;53.098;6.064;2022-08-24T05:33:04;29.43;;;26.67;;
57663;SDS011;43493;53.098;6.064;2022-08-24T05:35:30;28.33;;;25.63;;
57663;SDS011;43493;53.098;6.064;2022-08-24T05:38:00;29.23;;;26.37;;
57663;SDS011;43493;53.098;6.064;2022-08-24T05:40:26;29.73;;;26.73;;
57663;SDS011;43493;53.098;6.064;2022-08-24T05:42:51;28.83;;;26.20;;
57663;SDS011;43493;53.098;6.064;2022-08-24T05:45:17;28.37;;;25.63;;
57663;SDS011;43493;53.098;6.064;2022-08-24T05:47:43;28.87;;;26.03;;
57663;SDS011;43493;53.098;6.064;2022-08-24T05:50:09;29.47;;;26.77;;
57663;SDS011;43493;53.098;6.064;2022-08-24T05:52:35;30.00;;;27.30;;
57663;SDS011;43493;53.098;6.064;2022-08-24T05:55:01;31.30;;;28.20;;
57663;SDS011;43493;53.098;6.064;2022-08-24T05:57:30;30.50;;;27.47;;
57663;SDS011;43493;53.098;6.064;2022-08-24T05:59:57;30.63;;;27.73;;
57663;SDS011;43493;53.098;6.064;2022-08-24T06:02:23;29.30;;;26.20;;
57663;SDS011;43493;53.098;6.064;2022-08-24T06:04:49;27.90;;;25.07;;
57663;SDS011;43493;53.098;6.064;2022-08-24T06:07:15;23.70;;;21.50;;
57663;SDS011;43493;53.098;6.064;2022-08-24T06:09:42;27.07;;;24.57;;
57663;SDS011;43493;53.098;6.064;2022-08-24T06:12:08;25.83;;;22.93;;
57663;SDS011;43493;53.098;6.064;2022-08-24T06:14:36;23.77;;;21.20;;
57663;SDS011;43493;53.098;6.064;2022-08-24T06:17:06;22.87;;;20.67;;
57663;SDS011;43493;53.098;6.064;2022-08-24T06:19:33;23.07;;;19.67;;
57663;SDS011;43493;53.098;6.064;2022-08-24T06:21:59;21.47;;;19.33;;
57663;SDS011;43493;53.098;6.064;2022-08-24T06:24:25;19.93;;;17.93;;
57663;SDS011;43493;53.098;6.064;2022-08-24T06:27:10;19.73;;;17.58;;
57663;SDS011;43493;53.098;6.064;2022-08-24T06:29:56;19.17;;;17.17;;
57663;SDS011;43493;53.098;6.064;2022-08-24T06:32:24;19.43;;;17.30;;
57663;SDS011;43493;53.098;6.064;2022-08-24T06:34:53;17.07;;;15.37;;
57663;SDS011;43493;53.098;6.064;2022-08-24T06:37:20;17.65;;;15.35;;
57663;SDS011;43493;53.098;6.064;2022-08-24T06:39:50;17.23;;;14.73;;
57663;SDS011;43493;53.098;6.064;2022-08-24T06:42:16;16.50;;;14.23;;
57663;SDS011;43493;53.098;6.064;2022-08-24T06:44:42;15.98;;;14.27;;
57663;SDS011;43493;53.098;6.064;2022-08-24T06:47:08;13.98;;;11.73;;
57663;SDS011;43493;53.098;6.064;2022-08-24T06:49:35;13.02;;;11.73;;
57663;SDS011;43493;53.098;6.064;2022-08-24T06:52:02;15.40;;;12.82;;
57663;SDS011;43493;53.098;6.064;2022-08-24T06:54:29;15.00;;;10.98;;
57663;SDS011;43493;53.098;6.064;2022-08-24T06:56:55;14.35;;;12.20;;
57663;SDS011;43493;53.098;6.064;2022-08-24T06:59:23;13.38;;;10.57;;
57663;SDS011;43493;53.098;6.064;2022-08-24T07:01:51;11.68;;;10.48;;
57663;SDS011;43493;53.098;6.064;2022-08-24T07:04:17;13.38;;;10.13;;
57663;SDS011;43493;53.098;6.064;2022-08-24T07:06:43;12.95;;;11.48;;
57663;SDS011;43493;53.098;6.064;2022-08-24T07:09:09;13.55;;;10.05;;
57663;SDS011;43493;53.098;6.064;2022-08-24T07:11:36;10.93;;;9.52;;
57663;SDS011;43493;53.098;6.064;2022-08-24T07:14:02;10.15;;;8.35;;
57663;SDS011;43493;53.098;6.064;2022-08-24T07:16:28;11.05;;;8.25;;
57663;SDS011;43493;53.098;6.064;2022-08-24T07:18:55;10.15;;;8.38;;
57663;SDS011;43493;53.098;6.064;2022-08-24T07:21:21;12.98;;;8.82;;
57663;SDS011;43493;53.098;6.064;2022-08-24T07:23:48;12.93;;;8.88;;
57663;SDS011;43493;53.098;6.064;2022-08-24T07:26:15;10.77;;;7.60;;
57663;SDS011;43493;53.098;6.064;2022-08-24T07:28:43;14.18;;;8.43;;
57663;SDS011;43493;53.098;6.064;2022-08-24T07:31:09;13.50;;;8.15;;
57663;SDS011;43493;53.098;6.064;2022-08-24T07:33:37;10.65;;;7.50;;
57663;SDS011;43493;53.098;6.064;2022-08-24T07:36:04;11.20;;;8.45;;
57663;SDS011;43493;53.098;6.064;2022-08-24T07:38:30;11.13;;;8.05;;
57663;SDS011;43493;53.098;6.064;2022-08-24T07:40:57;10.85;;;8.10;;
57663;SDS011;43493;53.098;6.064;2022-08-24T07:43:24;10.45;;;7.88;;
57663;SDS011;43493;53.098;6.064;2022-08-24T07:45:50;11.75;;;8.25;;
57663;SDS011;43493;53.098;6.064;2022-08-24T07:48:16;10.73;;;8.02;;
57663;SDS011;43493;53.098;6.064;2022-08-24T07:50:43;10.23;;;7.53;;
57663;SDS011;43493;53.098;6.064;2022-08-24T07:53:09;9.68;;;7.60;;
57663;SDS011;43493;53.098;6.064;2022-08-24T07:55:35;12.55;;;8.35;;
57663;SDS011;43493;53.098;6.064;2022-08-24T07:58:01;11.55;;;7.78;;
57663;SDS011;43493;53.098;6.064;2022-08-24T08:00:27;9.15;;;7.00;;
57663;SDS011;43493;53.098;6.064;2022-08-24T08:02:52;10.02;;;7.18;;
57663;SDS011;43493;53.098;6.064;2022-08-24T08:05:20;9.93;;;7.68;;
57663;SDS011;43493;53.098;6.064;2022-08-24T08:07:48;8.15;;;6.68;;
57663;SDS011;43493;53.098;6.064;2022-08-24T08:10:14;10.48;;;7.22;;
57663;SDS011;43493;53.098;6.064;2022-08-24T08:12:40;14.15;;;7.53;;
57663;SDS011;43493;53.098;6.064;2022-08-24T08:15:06;9.52;;;7.20;;
57663;SDS011;43493;53.098;6.064;2022-08-24T08:17:34;10.00;;;7.13;;
57663;SDS011;43493;53.098;6.064;2022-08-24T08:20:02;11.55;;;6.45;;
57663;SDS011;43493;53.098;6.064;2022-08-24T08:22:29;6.15;;;4.60;;
57663;SDS011;43493;53.098;6.064;2022-08-24T08:25:14;7.40;;;5.40;;
57663;SDS011;43493;53.098;6.064;2022-08-24T08:27:39;7.80;;;5.15;;
57663;SDS011;43493;53.098;6.064;2022-08-24T08:30:05;8.00;;;4.95;;
57663;SDS011;43493;53.098;6.064;2022-08-24T08:32:31;9.55;;;5.20;;
57663;SDS011;43493;53.098;6.064;2022-08-24T08:34:58;11.27;;;6.13;;
57663;SDS011;43493;53.098;6.064;2022-08-24T08:37:23;8.00;;;5.43;;
57663;SDS011;43493;53.098;6.064;2022-08-24T08:39:49;10.02;;;6.32;;
57663;SDS011;43493;53.098;6.064;2022-08-24T08:42:22;9.00;;;6.15;;
57663;SDS011;43493;53.098;6.064;2022-08-24T08:44:56;7.65;;;6.35;;
57663;SDS011;43493;53.098;6.064;2022-08-24T08:56:29;9.75;;;6.57;;
57663;SDS011;43493;53.098;6.064;2022-08-24T08:59:06;9.80;;;6.47;;
57663;SDS011;43493;53.098;6.064;2022-08-24T09:24:02;7.85;;;6.07;;
57663;SDS011;43493;53.098;6.064;2022-08-24T09:32:30;7.60;;;4.80;;
57663;SDS011;43493;53.098;6.064;2022-08-24T09:35:21;8.85;;;5.32;;
57663;SDS011;43493;53.098;6.064;2022-08-24T09:38:06;8.68;;;4.00;;
57663;SDS011;43493;53.098;6.064;2022-08-24T10:04:28;6.07;;;3.63;;
57663;SDS011;43493;53.098;6.064;2022-08-24T10:07:13;8.38;;;4.72;;
57663;SDS011;43493;53.098;6.064;2022-08-24T10:10:09;7.07;;;3.17;;
57663;SDS011;43493;53.098;6.064;2022-08-24T10:15:26;7.72;;;3.08;;
57663;SDS011;43493;53.098;6.064;2022-08-24T10:28:55;6.05;;;2.40;;
57663;SDS011;43493;53.098;6.064;2022-08-24T10:40:15;8.13;;;3.10;;
57663;SDS011;43493;53.098;6.064;2022-08-24T10:43:09;5.00;;;2.63;;
57663;SDS011;43493;53.098;6.064;2022-08-24T10:46:06;5.65;;;2.53;;
57663;SDS011;43493;53.098;6.064;2022-08-24T10:49:03;7.18;;;2.10;;
57663;SDS011;43493;53.098;6.064;2022-08-24T10:52:40;5.80;;;3.10;;
57663;SDS011;43493;53.098;6.064;2022-08-24T10:54:46;11.20;;;2.83;;
57663;SDS011;43493;53.098;6.064;2022-08-24T11:00:08;8.13;;;3.35;;
57663;SDS011;43493;53.098;6.064;2022-08-24T11:02:42;7.63;;;3.70;;
57663;SDS011;43493;53.098;6.064;2022-08-24T11:05:34;10.73;;;4.43;;
57663;SDS011;43493;53.098;6.064;2022-08-24T11:08:00;7.27;;;3.70;;
57663;SDS011;43493;53.098;6.064;2022-08-24T11:10:33;9.53;;;3.80;;
57663;SDS011;43493;53.098;6.064;2022-08-24T11:15:46;6.90;;;3.50;;
57663;SDS011;43493;53.098;6.064;2022-08-24T11:18:15;6.13;;;4.17;;
57663;SDS011;43493;53.098;6.064;2022-08-24T11:20:42;7.90;;;3.10;;
57663;SDS011;43493;53.098;6.064;2022-08-24T11:25:52;8.50;;;3.63;;
57663;SDS011;43493;53.098;6.064;2022-08-24T11:28:43;6.00;;;3.60;;
57663;SDS011;43493;53.098;6.064;2022-08-24T11:33:57;6.03;;;3.57;;
57663;SDS011;43493;53.098;6.064;2022-08-24T11:36:26;9.70;;;3.53;;
57663;SDS011;43493;53.098;6.064;2022-08-24T11:42:09;6.43;;;3.83;;
57663;SDS011;43493;53.098;6.064;2022-08-24T11:45:09;7.47;;;4.50;;
57663;SDS011;43493;53.098;6.064;2022-08-24T11:47:43;4.87;;;2.77;;
57663;SDS011;43493;53.098;6.064;2022-08-24T11:53:29;8.17;;;3.40;;
57663;SDS011;43493;53.098;6.064;2022-08-24T12:01:45;6.50;;;2.67;;
57663;SDS011;43493;53.098;6.064;2022-08-24T12:21:20;3.67;;;2.30;;
57663;SDS011;43493;53.098;6.064;2022-08-24T12:23:50;2.90;;;1.60;;
57663;SDS011;43493;53.098;6.064;2022-08-24T12:26:23;4.60;;;1.50;;
57663;SDS011;43493;53.098;6.064;2022-08-24T12:28:54;3.83;;;2.03;;
57663;SDS011;43493;53.098;6.064;2022-08-24T12:31:33;5.40;;;2.23;;
57663;SDS011;43493;53.098;6.064;2022-08-24T12:34:07;5.00;;;1.83;;
57663;SDS011;43493;53.098;6.064;2022-08-24T12:39:33;2.37;;;1.50;;
57663;SDS011;43493;53.098;6.064;2022-08-24T12:42:15;5.43;;;1.93;;
57663;SDS011;43493;53.098;6.064;2022-08-24T12:47:21;3.27;;;1.63;;
57663;SDS011;43493;53.098;6.064;2022-08-24T12:50:00;2.40;;;1.30;;
57663;SDS011;43493;53.098;6.064;2022-08-24T12:55:34;2.43;;;1.30;;
57663;SDS011;43493;53.098;6.064;2022-08-24T13:01:01;2.90;;;1.40;;
57663;SDS011;43493;53.098;6.064;2022-08-24T13:06:03;2.70;;;1.03;;
57663;SDS011;43493;53.098;6.064;2022-08-24T13:08:40;3.30;;;1.13;;
57663;SDS011;43493;53.098;6.064;2022-08-24T13:11:12;3.97;;;1.37;;
57663;SDS011;43493;53.098;6.064;2022-08-24T13:19:33;2.30;;;1.33;;
57663;SDS011;43493;53.098;6.064;2022-08-24T13:27:46;2.93;;;1.27;;
57663;SDS011;43493;53.098;6.064;2022-08-24T13:30:18;4.30;;;1.53;;
57663;SDS011;43493;53.098;6.064;2022-08-24T13:32:48;4.70;;;1.30;;
57663;SDS011;43493;53.098;6.064;2022-08-24T13:35:52;2.28;;;1.23;;
57663;SDS011;43493;53.098;6.064;2022-08-24T13:46:37;1.70;;;1.08;;
57663;SDS011;43493;53.098;6.064;2022-08-24T13:49:18;2.47;;;1.17;;
57663;SDS011;43493;53.098;6.064;2022-08-24T13:52:22;1.97;;;1.00;;
57663;SDS011;43493;53.098;6.064;2022-08-24T13:55:02;3.57;;;1.40;;
57663;SDS011;43493;53.098;6.064;2022-08-24T13:58:05;1.17;;;0.90;;
57663;SDS011;43493;53.098;6.064;2022-08-24T14:03:38;3.00;;;1.20;;
57663;SDS011;43493;53.098;6.064;2022-08-24T14:11:52;2.63;;;1.17;;
57663;SDS011;43493;53.098;6.064;2022-08-24T14:17:24;2.27;;;1.30;;
57663;SDS011;43493;53.098;6.064;2022-08-24T14:25:25;2.00;;;1.10;;
57663;SDS011;43493;53.098;6.064;2022-08-24T14:54:52;3.23;;;1.40;;
57663;SDS011;43493;53.098;6.064;2022-08-24T15:00:33;3.47;;;1.40;;
57663;SDS011;43493;53.098;6.064;2022-08-24T15:11:43;1.60;;;1.10;;
57663;SDS011;43493;53.098;6.064;2022-08-24T15:14:44;1.60;;;1.20;;
57663;SDS011;43493;53.098;6.064;2022-08-24T15:17:08;2.60;;;1.17;;
57663;SDS011;43493;53.098;6.064;2022-08-24T15:19:59;6.47;;;2.27;;
57663;SDS011;43493;53.098;6.064;2022-08-24T15:27:56;5.10;;;2.87;;
57663;SDS011;43493;53.098;6.064;2022-08-24T15:30:31;5.43;;;2.70;;
57663;SDS011;43493;53.098;6.064;2022-08-24T15:33:08;7.00;;;3.07;;
57663;SDS011;43493;53.098;6.064;2022-08-24T15:35:38;5.07;;;2.30;;
57663;SDS011;43493;53.098;6.064;2022-08-24T15:38:20;5.33;;;2.30;;
57663;SDS011;43493;53.098;6.064;2022-08-24T15:40:49;7.10;;;2.50;;
57663;SDS011;43493;53.098;6.064;2022-08-24T15:43:17;3.80;;;2.10;;
57663;SDS011;43493;53.098;6.064;2022-08-24T15:45:45;4.83;;;2.10;;
57663;SDS011;43493;53.098;6.064;2022-08-24T15:48:14;3.37;;;2.00;;
57663;SDS011;43493;53.098;6.064;2022-08-24T15:50:44;4.40;;;2.10;;
57663;SDS011;43493;53.098;6.064;2022-08-24T15:53:29;9.47;;;2.87;;
57663;SDS011;43493;53.098;6.064;2022-08-24T15:55:58;5.33;;;2.80;;
57663;SDS011;43493;53.098;6.064;2022-08-24T15:58:45;4.87;;;2.40;;
57663;SDS011;43493;53.098;6.064;2022-08-24T16:06:26;4.43;;;2.20;;
57663;SDS011;43493;53.098;6.064;2022-08-24T16:14:34;5.03;;;2.58;;
57663;SDS011;43493;53.098;6.064;2022-08-24T16:19:53;7.10;;;2.80;;
57663;SDS011;43493;53.098;6.064;2022-08-24T16:22:36;6.47;;;2.77;;
57663;SDS011;43493;53.098;6.064;2022-08-24T16:33:39;6.17;;;3.20;;
57663;SDS011;43493;53.098;6.064;2022-08-24T16:36:09;7.73;;;4.00;;
57663;SDS011;43493;53.098;6.064;2022-08-24T16:38:44;5.80;;;3.17;;
57663;SDS011;43493;53.098;6.064;2022-08-24T16:41:15;8.57;;;4.00;;
57663;SDS011;43493;53.098;6.064;2022-08-24T16:43:43;7.40;;;3.90;;
57663;SDS011;43493;53.098;6.064;2022-08-24T16:46:10;7.87;;;4.43;;
57663;SDS011;43493;53.098;6.064;2022-08-24T16:48:36;7.63;;;5.00;;
57663;SDS011;43493;53.098;6.064;2022-08-24T16:51:02;9.97;;;5.13;;
57663;SDS011;43493;53.098;6.064;2022-08-24T16:53:28;12.50;;;5.97;;
57663;SDS011;43493;53.098;6.064;2022-08-24T16:55:54;9.97;;;7.10;;
57663;SDS011;43493;53.098;6.064;2022-08-24T16:58:21;8.33;;;5.87;;
57663;SDS011;43493;53.098;6.064;2022-08-24T17:00:53;10.70;;;6.77;;
57663;SDS011;43493;53.098;6.064;2022-08-24T17:03:19;9.63;;;6.33;;
57663;SDS011;43493;53.098;6.064;2022-08-24T17:05:44;10.73;;;6.50;;
57663;SDS011;43493;53.098;6.064;2022-08-24T17:08:10;9.60;;;7.57;;
57663;SDS011;43493;53.098;6.064;2022-08-24T17:10:37;7.57;;;5.77;;
57663;SDS011;43493;53.098;6.064;2022-08-24T17:13:03;11.87;;;6.37;;
57663;SDS011;43493;53.098;6.064;2022-08-24T17:15:28;9.93;;;5.33;;
57663;SDS011;43493;53.098;6.064;2022-08-24T17:17:58;8.50;;;5.03;;
57663;SDS011;43493;53.098;6.064;2022-08-24T17:20:27;8.33;;;5.60;;
57663;SDS011;43493;53.098;6.064;2022-08-24T17:22:53;8.40;;;4.23;;
57663;SDS011;43493;53.098;6.064;2022-08-24T17:25:20;11.50;;;5.23;;
57663;SDS011;43493;53.098;6.064;2022-08-24T17:27:47;8.07;;;5.50;;
57663;SDS011;43493;53.098;6.064;2022-08-24T17:30:13;7.73;;;5.47;;
57663;SDS011;43493;53.098;6.064;2022-08-24T17:32:41;9.53;;;4.47;;
57663;SDS011;43493;53.098;6.064;2022-08-24T17:35:07;7.80;;;4.33;;
57663;SDS011;43493;53.098;6.064;2022-08-24T17:37:34;8.20;;;4.27;;
57663;SDS011;43493;53.098;6.064;2022-08-24T17:40:01;7.30;;;4.40;;
57663;SDS011;43493;53.098;6.064;2022-08-24T17:42:28;8.57;;;4.00;;
57663;SDS011;43493;53.098;6.064;2022-08-24T17:44:54;8.27;;;4.20;;
57663;SDS011;43493;53.098;6.064;2022-08-24T17:47:20;8.47;;;4.93;;
57663;SDS011;43493;53.098;6.064;2022-08-24T17:49:46;8.33;;;4.47;;
57663;SDS011;43493;53.098;6.064;2022-08-24T17:52:12;8.00;;;4.83;;
57663;SDS011;43493;53.098;6.064;2022-08-24T17:54:39;7.87;;;4.60;;
57663;SDS011;43493;53.098;6.064;2022-08-24T17:57:05;6.87;;;4.17;;
57663;SDS011;43493;53.098;6.064;2022-08-24T17:59:32;6.63;;;4.17;;
57663;SDS011;43493;53.098;6.064;2022-08-24T18:02:00;9.60;;;5.10;;
57663;SDS011;43493;53.098;6.064;2022-08-24T18:04:28;9.90;;;5.63;;
57663;SDS011;43493;53.098;6.064;2022-08-24T18:06:56;6.90;;;5.30;;
57663;SDS011;43493;53.098;6.064;2022-08-24T18:11:53;8.93;;;5.17;;
57663;SDS011;43493;53.098;6.064;2022-08-24T18:14:19;9.37;;;4.40;;
57663;SDS011;43493;53.098;6.064;2022-08-24T18:16:45;9.27;;;5.70;;
57663;SDS011;43493;53.098;6.064;2022-08-24T18:19:11;9.00;;;5.00;;
57663;SDS011;43493;53.098;6.064;2022-08-24T18:21:38;10.13;;;5.40;;
57663;SDS011;43493;53.098;6.064;2022-08-24T18:24:04;11.33;;;6.30;;
57663;SDS011;43493;53.098;6.064;2022-08-24T18:26:30;9.67;;;6.30;;
57663;SDS011;43493;53.098;6.064;2022-08-24T18:28:58;9.80;;;5.60;;
57663;SDS011;43493;53.098;6.064;2022-08-24T18:31:27;10.27;;;6.10;;
57663;SDS011;43493;53.098;6.064;2022-08-24T18:33:53;8.23;;;5.80;;
57663;SDS011;43493;53.098;6.064;2022-08-24T18:36:19;7.30;;;5.67;;
57663;SDS011;43493;53.098;6.064;2022-08-24T18:38:45;12.43;;;6.50;;
57663;SDS011;43493;53.098;6.064;2022-08-24T18:41:10;7.47;;;5.83;;
57663;SDS011;43493;53.098;6.064;2022-08-24T18:43:36;9.23;;;7.30;;
57663;SDS011;43493;53.098;6.064;2022-08-24T18:46:02;9.93;;;6.00;;
57663;SDS011;43493;53.098;6.064;2022-08-24T18:48:30;11.47;;;6.10;;
57663;SDS011;43493;53.098;6.064;2022-08-24T18:50:56;8.77;;;5.57;;